CFL4 weather

Flesherton (Smithorrs Field)
Flesherton, Ontario, Canada

Public forecast

Using degrees Celsius for public forecast. Weather courtesy of forecast.io.

METAR (pilot weather report)

Closest report is CFB Borden, 26.4 nm (49.0 km) E. Retrieved 2019/07/18 14:00 UTC (47 minutes ago):

CYBN 181400Z AUTO 19007KT 160V220 9SM OVC016 24/20 A2995 RMK SLP139

TAF (pilot weather forecast)

Closest forecast is CFB Borden, 26.4 nm (49.0 km) E. Retrieved 2019/07/18 12:33 UTC (2 hours ago):

TAF TAF CYBN 181130Z 1812/1824 VRB03KT P6SM FEW007 FEW020 TEMPO 1812/1814 BKN007 OVC020 FM181700 16008KT P6SM SCT050 SCT200 FM182000 22012KT P6SM BKN040 BKN200 TEMPO 1820/1824 P6SM -SHRA BKN030 BKN120 RMK FCST BASED ON AUTO OBS. NXT FCST BY 181800Z